createdAt,value
2018-07-05T00:01:21.463Z,19.39
2018-07-05T00:02:21.396Z,19.43
2018-07-05T00:04:14.173Z,19.39
2018-07-05T00:05:14.146Z,19.28
2018-07-05T00:07:06.897Z,19.23
2018-07-05T00:08:06.842Z,19.24
2018-07-05T00:09:59.590Z,19.28
2018-07-05T00:10:59.528Z,19.13
2018-07-05T00:12:52.322Z,19.15
2018-07-05T00:13:52.262Z,19.20
2018-07-05T00:15:45.049Z,19.06
2018-07-05T00:16:44.975Z,19.06
2018-07-05T00:18:37.753Z,19.09
2018-07-05T00:19:37.714Z,18.99
2018-07-05T00:21:30.483Z,18.96
2018-07-05T00:22:30.405Z,18.89
2018-07-05T00:24:23.173Z,18.91
2018-07-05T00:25:23.119Z,18.90
2018-07-05T00:27:15.916Z,18.93
2018-07-05T00:28:15.842Z,18.93
2018-07-05T00:30:08.616Z,19.05
2018-07-05T00:31:08.564Z,18.97
2018-07-05T00:33:01.339Z,18.93
2018-07-05T00:34:01.269Z,18.97
2018-07-05T00:35:54.049Z,18.99
2018-07-05T00:36:53.982Z,18.99
2018-07-05T00:38:46.746Z,19.01
2018-07-05T00:39:46.692Z,18.93
2018-07-05T00:41:39.521Z,18.86
2018-07-05T00:42:39.451Z,18.82
2018-07-05T00:44:32.211Z,18.76
2018-07-05T00:45:32.138Z,18.82
2018-07-05T00:47:24.927Z,18.87
2018-07-05T00:48:24.861Z,18.89
2018-07-05T00:50:17.634Z,18.94
2018-07-05T00:51:17.560Z,18.94
2018-07-05T00:53:10.371Z,18.97
2018-07-05T00:54:10.301Z,18.93
2018-07-05T00:56:03.073Z,19.10
2018-07-05T00:57:03.000Z,19.12
2018-07-05T00:58:55.779Z,19.01
2018-07-05T00:59:55.717Z,19.05
2018-07-05T01:01:48.499Z,19.07
2018-07-05T01:02:48.421Z,19.09
2018-07-05T01:04:41.199Z,18.93
2018-07-05T01:05:41.135Z,18.99
2018-07-05T01:07:33.916Z,19.01
2018-07-05T01:08:33.858Z,18.91
2018-07-05T01:10:41.217Z,18.96
2018-07-05T01:11:26.581Z,19.02
2018-07-05T01:13:19.352Z,18.79
2018-07-05T01:14:19.272Z,18.76
2018-07-05T01:16:12.071Z,18.66
2018-07-05T01:17:11.987Z,18.59
2018-07-05T01:19:04.801Z,18.62
2018-07-05T01:20:04.719Z,18.54
2018-07-05T01:21:57.541Z,18.44
2018-07-05T01:22:57.471Z,18.36
2018-07-05T01:24:50.271Z,18.41
2018-07-05T01:25:50.211Z,18.39
2018-07-05T01:27:42.997Z,18.34
2018-07-05T01:28:42.923Z,18.25
2018-07-05T01:30:35.694Z,18.35
2018-07-05T01:31:35.670Z,18.29
2018-07-05T01:33:28.464Z,18.26
2018-07-05T01:34:28.339Z,18.26
2018-07-05T01:36:21.115Z,18.16
2018-07-05T01:37:21.053Z,18.13
2018-07-05T01:39:13.830Z,18.10
2018-07-05T01:40:13.756Z,18.05
2018-07-05T01:42:06.530Z,18.09
2018-07-05T01:43:06.461Z,18.04
2018-07-05T01:44:59.242Z,18.05
2018-07-05T01:45:59.187Z,18.02
2018-07-05T01:47:51.965Z,17.91
2018-07-05T01:48:51.894Z,18.13
2018-07-05T01:50:44.660Z,18.09
2018-07-05T01:51:44.601Z,18.10
2018-07-05T01:53:37.402Z,18.11
2018-07-05T01:54:37.314Z,18.14
2018-07-05T01:56:30.088Z,18.19
2018-07-05T01:57:30.027Z,18.13
2018-07-05T01:59:22.832Z,18.14
2018-07-05T02:00:22.733Z,18.16
2018-07-05T02:02:15.507Z,18.28
2018-07-05T02:03:15.437Z,18.20
2018-07-05T02:05:08.201Z,18.16
2018-07-05T02:06:08.150Z,18.11
2018-07-05T02:08:00.974Z,18.19
2018-07-05T02:09:00.881Z,18.10
2018-07-05T02:10:53.692Z,18.01
2018-07-05T02:11:53.621Z,18.02
2018-07-05T02:13:46.403Z,17.92
2018-07-05T02:14:46.329Z,17.74
2018-07-05T02:16:39.103Z,17.79
2018-07-05T02:17:39.043Z,17.84
2018-07-05T02:19:31.871Z,17.76
2018-07-05T02:20:31.762Z,17.87
2018-07-05T02:22:24.548Z,17.92
2018-07-05T02:23:24.472Z,17.84
2018-07-05T02:25:17.272Z,17.70
2018-07-05T02:26:17.203Z,17.76
2018-07-05T02:28:09.999Z,17.63
2018-07-05T02:29:09.915Z,17.76
2018-07-05T02:31:02.785Z,17.79
2018-07-05T02:32:02.669Z,17.76
2018-07-05T02:33:55.430Z,17.71
2018-07-05T02:34:55.362Z,17.80
2018-07-05T02:36:48.127Z,17.81
2018-07-05T02:37:48.066Z,17.94
2018-07-05T02:39:40.855Z,17.92
2018-07-05T02:40:40.785Z,17.95
2018-07-05T02:42:33.551Z,18.02
2018-07-05T02:43:33.485Z,18.07
2018-07-05T02:45:26.254Z,18.02
2018-07-05T02:46:26.191Z,18.05
2018-07-05T02:48:18.975Z,17.94
2018-07-05T02:49:18.903Z,17.92
2018-07-05T02:51:11.668Z,17.89
2018-07-05T02:52:11.606Z,17.81
2018-07-05T02:54:04.388Z,17.86
2018-07-05T02:55:04.317Z,17.98
2018-07-05T02:56:57.081Z,18.02
2018-07-05T02:57:57.021Z,17.87
2018-07-05T02:59:49.796Z,17.91
2018-07-05T03:00:49.724Z,17.98
2018-07-05T03:02:42.554Z,18.13
2018-07-05T03:03:42.480Z,18.11
2018-07-05T03:05:35.295Z,18.13
2018-07-05T03:06:35.224Z,18.20
2018-07-05T03:08:28.055Z,18.20
2018-07-05T03:09:27.979Z,18.09
2018-07-05T03:11:20.772Z,18.01
2018-07-05T03:12:20.717Z,18.09
2018-07-05T03:14:13.498Z,18.26
2018-07-05T03:15:13.432Z,18.28
2018-07-05T03:17:06.194Z,18.35
2018-07-05T03:18:06.124Z,18.29
2018-07-05T03:19:58.898Z,18.54
2018-07-05T03:20:58.827Z,18.64
2018-07-05T03:22:51.593Z,18.69
2018-07-05T03:23:51.536Z,18.69
2018-07-05T03:25:44.338Z,18.69
2018-07-05T03:26:44.273Z,18.65
2018-07-05T03:28:37.089Z,18.68
2018-07-05T03:29:37.021Z,18.69
2018-07-05T03:31:29.812Z,18.75
2018-07-05T03:32:29.749Z,18.68
2018-07-05T03:34:22.521Z,18.86
2018-07-05T03:35:22.449Z,18.93
2018-07-05T03:37:15.236Z,19.06
2018-07-05T03:38:15.192Z,19.06
2018-07-05T03:40:07.965Z,19.20
2018-07-05T03:41:07.896Z,19.23
2018-07-05T03:43:00.690Z,19.38
2018-07-05T03:44:00.596Z,19.27
2018-07-05T03:45:53.376Z,19.30
2018-07-05T03:46:53.310Z,19.30
2018-07-05T03:48:46.081Z,19.30
2018-07-05T03:49:46.014Z,19.35
2018-07-05T03:51:38.846Z,19.23
2018-07-05T03:52:38.737Z,19.16
2018-07-05T03:54:31.525Z,19.16
2018-07-05T03:55:31.456Z,19.13
2018-07-05T03:57:24.219Z,19.27
2018-07-05T03:58:24.170Z,19.28
2018-07-05T04:00:16.988Z,19.30
2018-07-05T04:01:16.913Z,19.34
2018-07-05T04:03:09.712Z,19.39
2018-07-05T04:04:09.643Z,19.53
2018-07-05T04:06:02.432Z,19.57
2018-07-05T04:07:02.360Z,19.67
2018-07-05T04:08:55.155Z,19.79
2018-07-05T04:09:55.078Z,19.79
2018-07-05T04:11:47.847Z,19.90
2018-07-05T04:12:47.796Z,20.01
2018-07-05T04:14:40.575Z,20.04
2018-07-05T04:15:40.502Z,20.20
2018-07-05T04:17:33.265Z,20.31
2018-07-05T04:18:33.208Z,20.51
2018-07-05T04:20:25.988Z,20.78
2018-07-05T04:21:25.909Z,20.83
2018-07-05T04:23:18.676Z,21.05
2018-07-05T04:24:18.642Z,21.30
2018-07-05T04:26:11.398Z,21.43
2018-07-05T04:27:11.330Z,21.70
2018-07-05T04:29:04.115Z,21.75
2018-07-05T04:30:04.037Z,21.86
2018-07-05T04:31:56.817Z,22.11
2018-07-05T04:32:56.753Z,22.11
2018-07-05T04:34:49.537Z,22.27
2018-07-05T04:35:49.463Z,22.31
2018-07-05T04:37:42.256Z,22.38
2018-07-05T04:38:42.199Z,22.41
2018-07-05T04:40:34.977Z,22.61
2018-07-05T04:41:34.904Z,22.70
2018-07-05T04:43:27.710Z,22.76
2018-07-05T04:44:27.646Z,22.63
2018-07-05T04:46:20.443Z,22.49
2018-07-05T04:47:20.407Z,22.48
2018-07-05T04:49:13.161Z,22.56
2018-07-05T04:50:13.083Z,22.56
2018-07-05T04:52:05.848Z,22.74
2018-07-05T04:53:05.810Z,22.66
2018-07-05T04:54:58.570Z,23.18
2018-07-05T04:55:58.494Z,23.26
2018-07-05T04:57:51.265Z,23.49
2018-07-05T04:58:51.201Z,23.63
2018-07-05T05:00:43.982Z,23.63
2018-07-05T05:01:43.919Z,23.97
2018-07-05T05:03:36.713Z,23.93
2018-07-05T05:04:36.631Z,23.97
2018-07-05T05:06:29.612Z,23.74
2018-07-05T05:07:29.334Z,23.75
2018-07-05T05:09:22.174Z,23.63
2018-07-05T05:10:22.046Z,23.71
2018-07-05T05:12:14.817Z,24.31
2018-07-05T05:13:14.758Z,24.23
2018-07-05T05:15:07.542Z,24.12
2018-07-05T05:16:07.468Z,24.15
2018-07-05T05:18:00.257Z,24.87
2018-07-05T05:19:00.248Z,25.44
2018-07-05T05:20:52.973Z,25.91
2018-07-05T05:21:52.901Z,26.47
2018-07-05T05:23:45.667Z,27.38
2018-07-05T05:24:45.632Z,27.72
2018-07-05T05:26:38.407Z,27.96
2018-07-05T05:27:38.337Z,27.80
2018-07-05T05:29:31.130Z,26.96
2018-07-05T05:30:31.061Z,26.60
2018-07-05T05:32:23.839Z,26.16
2018-07-05T05:33:23.779Z,26.34
2018-07-05T05:35:16.563Z,26.53
2018-07-05T05:36:16.490Z,27.15
2018-07-05T05:38:09.260Z,28.18
2018-07-05T05:39:09.205Z,28.62
2018-07-05T05:41:02.011Z,28.80
2018-07-05T05:42:01.947Z,28.54
2018-07-05T05:43:54.715Z,28.98
2018-07-05T05:44:54.697Z,28.92
2018-07-05T05:46:47.455Z,28.77
2018-07-05T05:47:47.430Z,28.98
2018-07-05T05:49:40.202Z,29.33
2018-07-05T05:50:40.114Z,29.44
2018-07-05T05:52:32.897Z,29.76
2018-07-05T05:53:32.830Z,29.97
2018-07-05T05:55:25.615Z,30.28
2018-07-05T05:56:25.549Z,30.36
2018-07-05T05:58:18.329Z,30.48
2018-07-05T05:59:18.277Z,30.42
2018-07-05T06:01:11.068Z,30.73
2018-07-05T06:02:10.994Z,30.81
2018-07-05T06:04:03.816Z,31.13
2018-07-05T06:05:03.751Z,31.18
2018-07-05T06:06:56.550Z,31.15
2018-07-05T06:07:56.486Z,31.09
2018-07-05T06:09:49.279Z,31.35
2018-07-05T06:10:49.296Z,31.32
2018-07-05T06:12:42.012Z,31.19
2018-07-05T06:13:41.944Z,31.23
2018-07-05T06:15:34.737Z,31.34
2018-07-05T06:16:34.680Z,31.52
2018-07-05T06:18:27.499Z,31.67
2018-07-05T06:19:27.397Z,31.64
2018-07-05T06:21:20.197Z,31.87
2018-07-05T06:22:20.121Z,32.02
2018-07-05T06:24:12.905Z,32.19
2018-07-05T06:25:12.852Z,32.32
2018-07-05T06:27:05.664Z,32.43
2018-07-05T06:28:05.588Z,32.43
2018-07-05T06:29:58.392Z,32.61
2018-07-05T06:30:58.336Z,32.49
2018-07-05T06:32:51.136Z,32.85
2018-07-05T06:33:51.064Z,32.90
2018-07-05T06:35:43.870Z,33.03
2018-07-05T06:36:43.792Z,33.22
2018-07-05T06:38:36.570Z,33.21
2018-07-05T06:39:36.536Z,33.26
2018-07-05T06:41:29.310Z,33.33
2018-07-05T06:42:29.237Z,33.49
2018-07-05T06:44:22.024Z,33.63
2018-07-05T06:45:21.974Z,33.63
2018-07-05T06:47:14.757Z,33.82
2018-07-05T06:48:14.705Z,33.93
2018-07-05T06:50:07.478Z,34.05
2018-07-05T06:51:07.424Z,34.08
2018-07-05T06:53:00.260Z,34.16
2018-07-05T06:54:00.145Z,34.38
2018-07-05T06:55:52.961Z,34.65
2018-07-05T06:56:52.906Z,34.71
2018-07-05T06:58:45.692Z,34.81
2018-07-05T06:59:45.634Z,34.99
2018-07-05T07:01:38.451Z,34.45
2018-07-05T07:02:38.376Z,34.52
2018-07-05T07:04:31.147Z,34.76
2018-07-05T07:05:31.096Z,34.80
2018-07-05T07:07:23.896Z,34.86
2018-07-05T07:08:23.839Z,34.83
2018-07-05T07:10:16.621Z,35.03
2018-07-05T07:11:16.571Z,35.00
2018-07-05T07:13:09.369Z,35.07
2018-07-05T07:14:09.308Z,35.15
2018-07-05T07:16:02.137Z,34.86
2018-07-05T07:17:02.029Z,34.24
2018-07-05T07:18:54.824Z,33.78
2018-07-05T07:19:54.789Z,33.60
2018-07-05T07:21:47.570Z,34.24
2018-07-05T07:22:47.491Z,34.00
2018-07-05T07:24:40.280Z,33.57
2018-07-05T07:25:40.226Z,33.34
2018-07-05T07:27:33.042Z,33.06
2018-07-05T07:28:32.976Z,32.66
2018-07-05T07:30:25.765Z,32.10
2018-07-05T07:31:25.813Z,31.88
2018-07-05T07:33:18.518Z,31.52
2018-07-05T07:34:18.435Z,31.35
2018-07-05T07:36:11.236Z,30.91
2018-07-05T07:37:11.167Z,30.68
2018-07-05T07:39:03.952Z,30.56
2018-07-05T07:40:03.899Z,30.67
2018-07-05T07:41:56.728Z,31.05
2018-07-05T07:42:56.623Z,30.90
2018-07-05T07:44:49.423Z,31.01
2018-07-05T07:45:49.452Z,30.93
2018-07-05T07:47:42.179Z,31.01
2018-07-05T07:48:42.107Z,31.12
2018-07-05T07:50:34.909Z,31.35
2018-07-05T07:51:34.832Z,31.47
2018-07-05T07:53:27.629Z,31.79
2018-07-05T07:54:27.560Z,31.53
2018-07-05T07:56:20.341Z,31.34
2018-07-05T07:57:20.285Z,31.23
2018-07-05T07:59:13.074Z,31.10
2018-07-05T08:00:13.005Z,30.88
2018-07-05T08:02:05.820Z,30.64
2018-07-05T08:03:05.745Z,30.51
2018-07-05T08:04:58.625Z,30.16
2018-07-05T08:05:58.568Z,30.16
2018-07-05T08:07:51.363Z,29.85
2018-07-05T08:08:51.300Z,29.78
2018-07-05T08:10:44.083Z,29.76
2018-07-05T08:11:44.033Z,29.70
2018-07-05T08:13:36.831Z,29.55
2018-07-05T08:14:36.764Z,29.57
2018-07-05T08:16:29.556Z,29.58
2018-07-05T08:17:29.497Z,29.63
2018-07-05T08:19:22.292Z,29.74
2018-07-05T08:20:22.234Z,29.71
2018-07-05T08:22:14.996Z,29.85
2018-07-05T08:23:14.946Z,30.66
2018-07-05T08:25:07.764Z,30.93
2018-07-05T08:26:07.693Z,30.72
2018-07-05T08:28:00.487Z,30.49
2018-07-05T08:29:00.418Z,30.66
2018-07-05T08:30:53.210Z,31.12
2018-07-05T08:31:53.153Z,31.38
2018-07-05T08:33:45.950Z,32.47
2018-07-05T08:34:45.882Z,32.47
2018-07-05T08:36:38.670Z,32.50
2018-07-05T08:37:38.611Z,32.41
2018-07-05T08:39:31.450Z,33.17
2018-07-05T08:40:31.348Z,33.63
2018-07-05T08:42:24.145Z,34.31
2018-07-05T08:43:24.078Z,34.72
2018-07-05T08:45:16.876Z,35.40
2018-07-05T08:46:16.806Z,34.91
2018-07-05T08:48:09.592Z,35.05
2018-07-05T08:49:09.533Z,35.12
2018-07-05T08:51:02.337Z,35.58
2018-07-05T08:52:02.266Z,35.73
2018-07-05T08:53:55.059Z,36.05
2018-07-05T08:54:54.993Z,36.22
2018-07-05T08:56:47.815Z,36.33
2018-07-05T08:57:47.755Z,36.27
2018-07-05T08:59:40.559Z,36.43
2018-07-05T09:00:40.486Z,36.55
2018-07-05T09:02:33.272Z,36.62
2018-07-05T09:03:33.215Z,36.43
2018-07-05T09:05:26.012Z,36.43
2018-07-05T09:06:25.994Z,36.59
2018-07-05T09:08:18.734Z,36.69
2018-07-05T09:09:18.677Z,36.64
2018-07-05T09:11:11.465Z,36.49
2018-07-05T09:12:11.403Z,36.50
2018-07-05T09:14:04.208Z,36.91
2018-07-05T09:15:04.143Z,36.91
2018-07-05T09:16:56.945Z,37.08
2018-07-05T09:17:57.104Z,37.09
2018-07-05T09:19:49.714Z,37.24
2018-07-05T09:20:49.671Z,37.06
2018-07-05T09:22:42.437Z,36.90
2018-07-05T09:23:42.427Z,36.91
2018-07-05T09:25:35.241Z,36.79
2018-07-05T09:26:35.164Z,36.74
2018-07-05T09:28:27.975Z,36.57
2018-07-05T09:29:27.902Z,36.69
2018-07-05T09:31:20.699Z,36.75
2018-07-05T09:32:20.640Z,36.83
2018-07-05T09:34:13.442Z,36.72
2018-07-05T09:35:13.377Z,36.72
2018-07-05T09:37:06.186Z,36.82
2018-07-05T09:38:06.114Z,36.93
2018-07-05T09:39:58.920Z,36.89
2018-07-05T09:40:58.923Z,36.91
2018-07-05T09:42:51.642Z,37.15
2018-07-05T09:43:51.590Z,37.16
2018-07-05T09:45:44.410Z,37.38
2018-07-05T09:46:44.342Z,37.16
2018-07-05T09:48:37.136Z,36.97
2018-07-05T09:49:37.088Z,36.93
2018-07-05T09:51:29.925Z,36.91
2018-07-05T09:52:29.832Z,36.74
2018-07-05T09:54:22.624Z,36.93
2018-07-05T09:55:22.634Z,37.09
2018-07-05T09:57:15.352Z,37.27
2018-07-05T09:58:15.305Z,37.05
2018-07-05T10:00:08.095Z,36.78
2018-07-05T10:01:08.029Z,36.57
2018-07-05T10:03:00.844Z,36.15
2018-07-05T10:04:00.772Z,35.74
2018-07-05T10:05:53.567Z,35.61
2018-07-05T10:06:53.502Z,35.71
2018-07-05T10:08:46.297Z,36.03
2018-07-05T10:09:46.237Z,36.28
2018-07-05T10:11:39.053Z,36.49
2018-07-05T10:12:38.994Z,36.55
2018-07-05T10:14:31.815Z,36.67
2018-07-05T10:15:31.736Z,36.78
2018-07-05T10:17:24.525Z,37.09
2018-07-05T10:18:24.473Z,36.74
2018-07-05T10:20:17.293Z,36.86
2018-07-05T10:21:17.215Z,36.86
2018-07-05T10:23:10.011Z,36.71
2018-07-05T10:24:09.961Z,36.71
2018-07-05T10:26:02.831Z,36.83
2018-07-05T10:27:02.714Z,36.60
2018-07-05T10:28:55.492Z,36.55
2018-07-05T10:29:55.528Z,36.74
2018-07-05T10:31:48.241Z,36.75
2018-07-05T10:32:48.222Z,36.46
2018-07-05T10:34:40.973Z,36.38
2018-07-05T10:35:40.915Z,36.21
2018-07-05T10:37:33.718Z,36.11
2018-07-05T10:38:33.655Z,35.76
2018-07-05T10:40:26.487Z,35.56
2018-07-05T10:41:26.415Z,35.71
2018-07-05T10:43:19.274Z,35.87
2018-07-05T10:44:19.176Z,35.58
2018-07-05T10:46:12.043Z,35.64
2018-07-05T10:47:11.894Z,35.77
2018-07-05T10:49:04.712Z,35.64
2018-07-05T10:50:04.652Z,35.78
2018-07-05T10:51:57.451Z,35.71
2018-07-05T10:52:57.391Z,35.74
2018-07-05T10:54:50.197Z,35.84
2018-07-05T10:55:50.145Z,35.81
2018-07-05T10:57:42.955Z,35.34
2018-07-05T10:58:42.889Z,35.36
2018-07-05T11:00:35.681Z,35.40
2018-07-05T11:01:35.624Z,35.36
2018-07-05T11:03:28.420Z,35.52
2018-07-05T11:04:28.352Z,35.55
2018-07-05T11:06:21.157Z,35.34
2018-07-05T11:07:21.143Z,35.12
2018-07-05T11:09:13.879Z,35.09
2018-07-05T11:10:13.828Z,35.05
2018-07-05T11:12:06.626Z,35.17
2018-07-05T11:13:06.559Z,35.28
2018-07-05T11:14:59.346Z,35.29
2018-07-05T11:15:59.288Z,35.13
2018-07-05T11:17:52.103Z,35.15
2018-07-05T11:18:52.038Z,35.07
2018-07-05T11:20:44.826Z,35.07
2018-07-05T11:21:44.767Z,35.24
2018-07-05T11:23:37.558Z,35.29
2018-07-05T11:24:37.498Z,35.15
2018-07-05T11:26:30.308Z,34.99
2018-07-05T11:27:30.248Z,34.94
2018-07-05T11:29:23.037Z,34.81
2018-07-05T11:30:22.989Z,34.71
2018-07-05T11:32:15.778Z,34.50
2018-07-05T11:33:15.716Z,34.53
2018-07-05T11:35:08.521Z,34.46
2018-07-05T11:36:08.474Z,34.48
2018-07-05T11:38:01.270Z,34.28
2018-07-05T11:39:01.201Z,34.40
2018-07-05T11:40:54.043Z,34.30
2018-07-05T11:41:53.939Z,34.27
2018-07-05T11:43:47.066Z,34.14
2018-07-05T11:44:46.690Z,34.08
2018-07-05T11:46:39.491Z,33.87
2018-07-05T11:47:39.424Z,33.94
2018-07-05T11:49:32.206Z,33.81
2018-07-05T11:50:32.147Z,33.86
2018-07-05T11:52:24.985Z,33.82
2018-07-05T11:53:24.901Z,33.78
2018-07-05T11:55:17.706Z,33.82
2018-07-05T11:56:17.643Z,33.72
2018-07-05T11:58:10.449Z,33.45
2018-07-05T11:59:10.378Z,33.43
2018-07-05T12:01:03.164Z,33.21
2018-07-05T12:02:03.135Z,33.12
2018-07-05T12:03:55.911Z,32.98
2018-07-05T12:04:55.850Z,32.90
2018-07-05T12:06:48.642Z,32.84
2018-07-05T12:07:48.594Z,32.78
2018-07-05T12:09:41.390Z,32.85
2018-07-05T12:10:41.327Z,32.68
2018-07-05T12:12:34.123Z,32.59
2018-07-05T12:13:34.054Z,32.50
2018-07-05T12:15:26.846Z,32.43
2018-07-05T12:16:26.801Z,32.46
2018-07-05T12:18:19.668Z,32.39
2018-07-05T12:19:19.534Z,32.40
2018-07-05T12:21:12.327Z,32.39
2018-07-05T12:22:12.271Z,32.36
2018-07-05T12:24:05.136Z,32.31
2018-07-05T12:25:05.002Z,32.27
2018-07-05T12:26:57.800Z,32.25
2018-07-05T12:27:57.741Z,32.07
2018-07-05T12:29:50.555Z,32.10
2018-07-05T12:30:50.483Z,32.14
2018-07-05T12:32:43.263Z,32.21
2018-07-05T12:33:43.215Z,32.22
2018-07-05T12:35:36.014Z,32.12
2018-07-05T12:36:35.945Z,32.02
2018-07-05T12:38:28.747Z,31.95
2018-07-05T12:39:28.722Z,31.92
2018-07-05T12:41:21.469Z,31.72
2018-07-05T12:42:21.412Z,31.75
2018-07-05T12:44:14.205Z,31.90
2018-07-05T12:45:14.134Z,31.84
2018-07-05T12:47:06.915Z,31.87
2018-07-05T12:48:06.858Z,31.88
2018-07-05T12:49:59.660Z,31.85
2018-07-05T12:50:59.600Z,31.88
2018-07-05T12:52:52.383Z,31.79
2018-07-05T12:53:52.326Z,31.84
2018-07-05T12:55:45.142Z,31.95
2018-07-05T12:56:45.064Z,31.99
2018-07-05T12:58:37.870Z,32.07
2018-07-05T12:59:37.866Z,32.13
2018-07-05T13:01:30.604Z,32.29
2018-07-05T13:02:30.539Z,32.31
2018-07-05T13:04:23.401Z,32.21
2018-07-05T13:05:23.277Z,32.31
2018-07-05T13:07:16.057Z,32.43
2018-07-05T13:08:16.007Z,32.58
2018-07-05T13:10:08.799Z,32.53
2018-07-05T13:11:08.772Z,32.62
2018-07-05T13:13:01.532Z,32.53
2018-07-05T13:14:01.484Z,32.51
2018-07-05T13:15:54.276Z,32.43
2018-07-05T13:16:54.208Z,32.39
2018-07-05T13:18:46.997Z,32.24
2018-07-05T13:19:46.934Z,32.28
2018-07-05T13:21:39.736Z,32.22
2018-07-05T13:22:39.670Z,32.21
2018-07-05T13:24:32.471Z,32.16
2018-07-05T13:25:32.414Z,32.17
2018-07-05T13:27:25.211Z,32.19
2018-07-05T13:28:25.151Z,32.16
2018-07-05T13:30:17.949Z,32.09
2018-07-05T13:31:17.883Z,32.07
2018-07-05T13:33:10.753Z,32.06
2018-07-05T13:34:10.609Z,31.99
2018-07-05T13:36:03.406Z,31.95
2018-07-05T13:37:03.342Z,32.06
2018-07-05T13:38:56.127Z,31.95
2018-07-05T13:39:56.140Z,32.02
2018-07-05T13:41:48.919Z,31.91
2018-07-05T13:42:48.815Z,31.71
2018-07-05T13:44:41.606Z,31.64
2018-07-05T13:45:41.611Z,31.62
2018-07-05T13:47:34.348Z,31.46
2018-07-05T13:48:34.273Z,31.38
2018-07-05T13:50:27.066Z,31.30
2018-07-05T13:51:27.005Z,31.37
2018-07-05T13:53:19.801Z,31.32
2018-07-05T13:54:19.734Z,31.22
2018-07-05T13:56:12.519Z,31.05
2018-07-05T13:57:12.467Z,30.94
2018-07-05T13:59:05.278Z,30.90
2018-07-05T14:00:05.208Z,30.91
2018-07-05T14:01:58.000Z,31.03
2018-07-05T14:02:57.936Z,31.00
2018-07-05T14:04:50.743Z,31.03
2018-07-05T14:05:50.667Z,31.03
2018-07-05T14:07:43.498Z,31.10
2018-07-05T14:08:43.404Z,31.03
2018-07-05T14:10:36.193Z,31.09
2018-07-05T14:11:36.129Z,31.05
2018-07-05T14:13:28.923Z,31.05
2018-07-05T14:14:28.869Z,31.03
2018-07-05T14:16:21.640Z,31.13
2018-07-05T14:17:21.581Z,31.07
2018-07-05T14:19:14.376Z,31.07
2018-07-05T14:20:14.307Z,31.19
2018-07-05T14:22:07.123Z,31.09
2018-07-05T14:23:07.069Z,31.07
2018-07-05T14:24:59.956Z,31.16
2018-07-05T14:25:59.824Z,31.01
2018-07-05T14:27:52.605Z,30.97
2018-07-05T14:28:52.642Z,30.93
2018-07-05T14:30:45.358Z,30.96
2018-07-05T14:31:45.269Z,30.98
2018-07-05T14:33:38.049Z,31.01
2018-07-05T14:34:37.999Z,30.94
2018-07-05T14:36:30.797Z,31.04
2018-07-05T14:37:30.720Z,30.91
2018-07-05T14:39:23.530Z,31.05
2018-07-05T14:40:23.446Z,30.98
2018-07-05T14:42:16.218Z,31.04
2018-07-05T14:43:16.165Z,31.04
2018-07-05T14:45:08.963Z,30.97
2018-07-05T14:46:08.913Z,30.90
2018-07-05T14:48:01.680Z,31.01
2018-07-05T14:49:01.628Z,30.94
2018-07-05T14:50:54.430Z,31.01
2018-07-05T14:51:54.355Z,31.03
2018-07-05T14:53:47.158Z,31.10
2018-07-05T14:54:47.103Z,31.07
2018-07-05T14:56:39.913Z,31.03
2018-07-05T14:57:39.845Z,31.01
2018-07-05T14:59:32.636Z,31.01
2018-07-05T15:00:32.611Z,31.01
2018-07-05T15:02:25.405Z,31.03
2018-07-05T15:03:25.339Z,30.98
2018-07-05T15:05:18.120Z,30.98
2018-07-05T15:06:18.063Z,31.01
2018-07-05T15:08:10.864Z,31.12
2018-07-05T15:09:10.817Z,30.96
2018-07-05T15:11:03.703Z,31.05
2018-07-05T15:12:03.524Z,31.01
2018-07-05T15:13:56.313Z,30.91
2018-07-05T15:14:56.264Z,30.91
2018-07-05T15:16:49.125Z,30.91
2018-07-05T15:17:49.004Z,30.94
2018-07-05T15:19:41.780Z,30.94
2018-07-05T15:20:41.726Z,30.83
2018-07-05T15:22:34.532Z,30.88
2018-07-05T15:23:34.447Z,30.90
2018-07-05T15:25:27.246Z,30.90
2018-07-05T15:26:27.187Z,30.83
2018-07-05T15:28:19.994Z,30.88
2018-07-05T15:29:19.956Z,30.83
2018-07-05T15:31:12.741Z,30.79
2018-07-05T15:32:12.666Z,30.78
2018-07-05T15:34:05.457Z,30.79
2018-07-05T15:35:05.393Z,30.70
2018-07-05T15:36:58.181Z,30.73
2018-07-05T15:37:58.113Z,30.68
2018-07-05T15:39:50.898Z,30.67
2018-07-05T15:40:50.851Z,30.68
2018-07-05T15:42:43.627Z,30.63
2018-07-05T15:43:43.559Z,30.64
2018-07-05T15:45:36.346Z,30.61
2018-07-05T15:46:36.323Z,30.61
2018-07-05T15:48:29.108Z,30.57
2018-07-05T15:49:29.032Z,30.53
2018-07-05T15:51:21.829Z,30.54
2018-07-05T15:52:21.769Z,30.56
2018-07-05T15:54:14.561Z,30.46
2018-07-05T15:55:14.491Z,30.34
2018-07-05T15:57:07.312Z,30.34
2018-07-05T15:58:07.259Z,30.32
2018-07-05T16:00:00.053Z,30.36
2018-07-05T16:00:59.978Z,30.38
2018-07-05T16:02:52.761Z,30.42
2018-07-05T16:03:52.718Z,30.29
2018-07-05T16:05:45.505Z,30.30
2018-07-05T16:06:45.433Z,30.25
2018-07-05T16:08:38.246Z,30.18
2018-07-05T16:09:38.160Z,30.18
2018-07-05T16:11:30.948Z,30.22
2018-07-05T16:12:30.881Z,30.16
2018-07-05T16:14:23.697Z,30.13
2018-07-05T16:15:23.613Z,30.07
2018-07-05T16:17:16.377Z,30.10
2018-07-05T16:18:16.322Z,30.08
2018-07-05T16:20:09.119Z,30.06
2018-07-05T16:21:09.050Z,30.00
2018-07-05T16:23:01.830Z,29.97
2018-07-05T16:24:01.774Z,30.00
2018-07-05T16:25:54.568Z,29.97
2018-07-05T16:26:54.507Z,29.97
2018-07-05T16:28:47.284Z,29.99
2018-07-05T16:29:47.222Z,30.00
2018-07-05T16:31:40.034Z,29.82
2018-07-05T16:32:39.953Z,29.89
2018-07-05T16:34:32.765Z,29.84
2018-07-05T16:35:32.682Z,29.89
2018-07-05T16:37:25.494Z,29.91
2018-07-05T16:38:25.421Z,29.85
2018-07-05T16:40:18.233Z,29.79
2018-07-05T16:41:18.166Z,29.79
2018-07-05T16:43:10.951Z,29.82
2018-07-05T16:44:10.891Z,29.73
2018-07-05T16:46:03.732Z,29.73
2018-07-05T16:47:03.637Z,29.67
2018-07-05T16:48:56.425Z,29.71
2018-07-05T16:49:56.371Z,29.67
2018-07-05T16:51:49.172Z,29.69
2018-07-05T16:52:49.096Z,29.69
2018-07-05T16:54:41.924Z,29.60
2018-07-05T16:55:41.820Z,29.60
2018-07-05T16:57:34.608Z,29.58
2018-07-05T16:58:34.551Z,29.58
2018-07-05T17:00:27.338Z,29.49
2018-07-05T17:01:27.279Z,29.44
2018-07-05T17:03:20.148Z,29.42
2018-07-05T17:04:19.999Z,29.36
2018-07-05T17:06:12.781Z,29.37
2018-07-05T17:07:12.725Z,29.30
2018-07-05T17:09:05.518Z,29.26
2018-07-05T17:10:05.453Z,29.33
2018-07-05T17:11:58.247Z,29.32
2018-07-05T17:12:58.225Z,29.27
2018-07-05T17:14:50.963Z,29.25
2018-07-05T17:15:50.935Z,29.27
2018-07-05T17:17:43.736Z,29.21
2018-07-05T17:18:43.662Z,29.15
2018-07-05T17:20:36.428Z,29.18
2018-07-05T17:21:36.372Z,29.07
2018-07-05T17:23:41.910Z,29.15
2018-07-05T17:24:41.841Z,29.05
2018-07-05T17:26:34.637Z,29.02
2018-07-05T17:27:34.583Z,29.00
2018-07-05T17:29:27.392Z,28.97
2018-07-05T17:30:27.306Z,29.05
2018-07-05T17:32:20.085Z,28.94
2018-07-05T17:33:20.069Z,28.98
2018-07-05T17:35:12.807Z,28.85
2018-07-05T17:36:12.736Z,28.91
2018-07-05T17:38:05.943Z,28.89
2018-07-05T17:39:05.458Z,28.83
2018-07-05T17:40:58.371Z,28.88
2018-07-05T17:41:58.180Z,28.91
2018-07-05T17:43:50.972Z,28.97
2018-07-05T17:44:50.896Z,28.97
2018-07-05T17:46:43.683Z,28.91
2018-07-05T17:47:43.631Z,28.77
2018-07-05T17:49:36.429Z,28.74
2018-07-05T17:50:36.381Z,28.73
2018-07-05T17:52:29.141Z,28.70
2018-07-05T17:53:29.075Z,28.70
2018-07-05T17:55:21.867Z,28.58
2018-07-05T17:56:21.793Z,28.55
2018-07-05T17:58:14.588Z,28.52
2018-07-05T17:59:14.521Z,28.51
2018-07-05T18:01:07.302Z,28.46
2018-07-05T18:02:07.247Z,28.45
2018-07-05T18:04:00.039Z,28.40
2018-07-05T18:04:59.965Z,28.39
2018-07-05T18:06:52.733Z,28.40
2018-07-05T18:07:52.682Z,28.28
2018-07-05T18:09:45.461Z,28.27
2018-07-05T18:10:45.401Z,28.30
2018-07-05T18:12:38.262Z,28.25
2018-07-05T18:13:38.116Z,28.18
2018-07-05T18:15:30.936Z,28.21
2018-07-05T18:16:30.862Z,28.28
2018-07-05T18:18:23.609Z,28.23
2018-07-05T18:19:23.559Z,28.15
2018-07-05T18:21:16.364Z,28.20
2018-07-05T18:22:16.367Z,28.39
2018-07-05T18:24:09.099Z,28.85
2018-07-05T18:25:09.079Z,28.79
2018-07-05T18:27:01.883Z,28.72
2018-07-05T18:28:01.965Z,28.61
2018-07-05T18:29:54.594Z,28.50
2018-07-05T18:30:54.530Z,28.36
2018-07-05T18:32:47.331Z,28.21